sensor_id;sensor_type;location;lat;lon;timestamp;temperature;humidity
78289;DHT22;67539;48.752;12.922;2023-09-19T00:00:21;16.60;99.90
78289;DHT22;67539;48.752;12.922;2023-09-19T00:02:55;16.50;99.90
78289;DHT22;67539;48.752;12.922;2023-09-19T00:05:27;16.50;99.90
78289;DHT22;67539;48.752;12.922;2023-09-19T00:07:57;16.50;99.90
78289;DHT22;67539;48.752;12.922;2023-09-19T00:10:26;16.50;99.90
78289;DHT22;67539;48.752;12.922;2023-09-19T00:12:59;16.50;99.90
78289;DHT22;67539;48.752;12.922;2023-09-19T00:15:37;16.50;99.90
78289;DHT22;67539;48.752;12.922;2023-09-19T00:18:05;16.50;99.90
78289;DHT22;67539;48.752;12.922;2023-09-19T00:20:36;16.50;99.90
78289;DHT22;67539;48.752;12.922;2023-09-19T00:23:05;16.50;99.90
78289;DHT22;67539;48.752;12.922;2023-09-19T00:25:35;16.50;99.90
78289;DHT22;67539;48.752;12.922;2023-09-19T00:28:06;16.50;99.90
78289;DHT22;67539;48.752;12.922;2023-09-19T00:30:34;16.50;99.90
78289;DHT22;67539;48.752;12.922;2023-09-19T00:33:05;16.50;99.90
78289;DHT22;67539;48.752;12.922;2023-09-19T00:35:34;16.40;99.90
78289;DHT22;67539;48.752;12.922;2023-09-19T00:38:03;16.40;99.90
78289;DHT22;67539;48.752;12.922;2023-09-19T00:40:33;16.40;99.90
78289;DHT22;67539;48.752;12.922;2023-09-19T00:43:02;16.40;99.90
78289;DHT22;67539;48.752;12.922;2023-09-19T00:45:32;16.40;99.90
78289;DHT22;67539;48.752;12.922;2023-09-19T00:48:01;16.40;99.90
78289;DHT22;67539;48.752;12.922;2023-09-19T00:50:38;16.40;99.90
78289;DHT22;67539;48.752;12.922;2023-09-19T00:53:14;16.40;99.90
78289;DHT22;67539;48.752;12.922;2023-09-19T00:55:45;16.30;99.90
78289;DHT22;67539;48.752;12.922;2023-09-19T00:58:14;16.30;99.90
78289;DHT22;67539;48.752;12.922;2023-09-19T01:00:43;16.30;99.90
78289;DHT22;67539;48.752;12.922;2023-09-19T01:03:11;16.30;99.90
78289;DHT22;67539;48.752;12.922;2023-09-19T01:05:41;16.30;99.90
78289;DHT22;67539;48.752;12.922;2023-09-19T01:08:11;16.30;99.90
78289;DHT22;67539;48.752;12.922;2023-09-19T01:10:46;16.30;99.90
78289;DHT22;67539;48.752;12.922;2023-09-19T01:13:22;16.30;99.90
78289;DHT22;67539;48.752;12.922;2023-09-19T01:16:05;16.30;99.90
78289;DHT22;67539;48.752;12.922;2023-09-19T01:18:45;16.30;99.90
78289;DHT22;67539;48.752;12.922;2023-09-19T01:21:22;16.30;99.90
78289;DHT22;67539;48.752;12.922;2023-09-19T01:24:27;16.30;99.90
78289;DHT22;67539;48.752;12.922;2023-09-19T01:27:23;16.40;99.90
78289;DHT22;67539;48.752;12.922;2023-09-19T01:30:06;16.40;99.90
78289;DHT22;67539;48.752;12.922;2023-09-19T01:32:35;16.40;99.90
78289;DHT22;67539;48.752;12.922;2023-09-19T01:35:05;16.40;99.90
78289;DHT22;67539;48.752;12.922;2023-09-19T01:37:33;16.40;99.90
78289;DHT22;67539;48.752;12.922;2023-09-19T01:40:04;16.40;99.90
78289;DHT22;67539;48.752;12.922;2023-09-19T01:42:48;16.40;99.90
78289;DHT22;67539;48.752;12.922;2023-09-19T01:45:24;16.40;99.90
78289;DHT22;67539;48.752;12.922;2023-09-19T01:47:55;16.40;99.90
78289;DHT22;67539;48.752;12.922;2023-09-19T01:50:30;16.40;99.90
78289;DHT22;67539;48.752;12.922;2023-09-19T01:53:04;16.40;99.90
78289;DHT22;67539;48.752;12.922;2023-09-19T01:55:39;16.40;99.90
78289;DHT22;67539;48.752;12.922;2023-09-19T01:58:16;16.40;99.90
78289;DHT22;67539;48.752;12.922;2023-09-19T02:00:48;16.40;99.90
78289;DHT22;67539;48.752;12.922;2023-09-19T02:03:20;16.40;99.90
78289;DHT22;67539;48.752;12.922;2023-09-19T02:05:50;16.40;99.90
78289;DHT22;67539;48.752;12.922;2023-09-19T02:08:22;16.40;99.90
78289;DHT22;67539;48.752;12.922;2023-09-19T02:10:50;16.40;99.90
78289;DHT22;67539;48.752;12.922;2023-09-19T02:13:21;16.40;99.90
78289;DHT22;67539;48.752;12.922;2023-09-19T02:15:52;16.40;99.90
78289;DHT22;67539;48.752;12.922;2023-09-19T02:18:20;16.40;99.90
78289;DHT22;67539;48.752;12.922;2023-09-19T02:20:48;16.40;99.90
78289;DHT22;67539;48.752;12.922;2023-09-19T02:23:18;16.40;99.90
78289;DHT22;67539;48.752;12.922;2023-09-19T02:25:52;16.40;99.90
78289;DHT22;67539;48.752;12.922;2023-09-19T02:28:20;16.40;99.90
78289;DHT22;67539;48.752;12.922;2023-09-19T02:30:52;16.40;99.90
78289;DHT22;67539;48.752;12.922;2023-09-19T02:33:20;16.40;99.90
78289;DHT22;67539;48.752;12.922;2023-09-19T02:35:54;16.40;99.90
78289;DHT22;67539;48.752;12.922;2023-09-19T02:38:24;16.40;99.90
78289;DHT22;67539;48.752;12.922;2023-09-19T02:40:53;16.40;99.90
78289;DHT22;67539;48.752;12.922;2023-09-19T02:43:22;16.50;99.90
78289;DHT22;67539;48.752;12.922;2023-09-19T02:45:52;16.40;99.90
78289;DHT22;67539;48.752;12.922;2023-09-19T02:48:21;16.50;99.90
78289;DHT22;67539;48.752;12.922;2023-09-19T02:50:49;16.40;99.90
78289;DHT22;67539;48.752;12.922;2023-09-19T02:53:18;16.50;99.90
78289;DHT22;67539;48.752;12.922;2023-09-19T02:55:46;16.50;99.90
78289;DHT22;67539;48.752;12.922;2023-09-19T02:58:15;16.50;99.90
78289;DHT22;67539;48.752;12.922;2023-09-19T03:00:46;16.40;99.90
78289;DHT22;67539;48.752;12.922;2023-09-19T03:03:16;16.40;99.90
78289;DHT22;67539;48.752;12.922;2023-09-19T03:05:45;16.40;99.90
78289;DHT22;67539;48.752;12.922;2023-09-19T03:08:17;16.40;99.90
78289;DHT22;67539;48.752;12.922;2023-09-19T03:10:47;16.50;99.90
78289;DHT22;67539;48.752;12.922;2023-09-19T03:13:16;16.40;99.90
78289;DHT22;67539;48.752;12.922;2023-09-19T03:15:44;16.40;99.90
78289;DHT22;67539;48.752;12.922;2023-09-19T03:18:17;16.40;99.90
78289;DHT22;67539;48.752;12.922;2023-09-19T03:20:52;16.40;99.90
78289;DHT22;67539;48.752;12.922;2023-09-19T03:23:22;16.50;99.90
78289;DHT22;67539;48.752;12.922;2023-09-19T03:25:51;16.50;99.90
78289;DHT22;67539;48.752;12.922;2023-09-19T03:28:19;16.40;99.90
78289;DHT22;67539;48.752;12.922;2023-09-19T03:30:58;16.50;99.90
78289;DHT22;67539;48.752;12.922;2023-09-19T03:33:29;16.40;99.90
78289;DHT22;67539;48.752;12.922;2023-09-19T03:36:02;16.40;99.90
78289;DHT22;67539;48.752;12.922;2023-09-19T03:38:32;16.40;99.90
78289;DHT22;67539;48.752;12.922;2023-09-19T03:41:01;16.40;99.90
78289;DHT22;67539;48.752;12.922;2023-09-19T03:43:29;16.40;99.90
78289;DHT22;67539;48.752;12.922;2023-09-19T03:46:01;16.40;99.90
78289;DHT22;67539;48.752;12.922;2023-09-19T03:48:33;16.50;99.90
78289;DHT22;67539;48.752;12.922;2023-09-19T03:51:02;16.50;99.90
78289;DHT22;67539;48.752;12.922;2023-09-19T03:53:31;16.50;99.90
78289;DHT22;67539;48.752;12.922;2023-09-19T03:55:59;16.50;99.90
78289;DHT22;67539;48.752;12.922;2023-09-19T03:58:30;16.50;99.90
78289;DHT22;67539;48.752;12.922;2023-09-19T04:00:58;16.50;99.90
78289;DHT22;67539;48.752;12.922;2023-09-19T04:03:27;16.50;99.90
78289;DHT22;67539;48.752;12.922;2023-09-19T04:06:04;16.50;99.90
78289;DHT22;67539;48.752;12.922;2023-09-19T04:08:32;16.50;99.90
78289;DHT22;67539;48.752;12.922;2023-09-19T04:11:00;16.40;99.90
78289;DHT22;67539;48.752;12.922;2023-09-19T04:13:28;16.40;99.90
78289;DHT22;67539;48.752;12.922;2023-09-19T04:15:56;16.40;99.90
78289;DHT22;67539;48.752;12.922;2023-09-19T04:18:24;16.40;99.90
78289;DHT22;67539;48.752;12.922;2023-09-19T04:20:53;16.40;99.90
78289;DHT22;67539;48.752;12.922;2023-09-19T04:23:24;16.40;99.90
78289;DHT22;67539;48.752;12.922;2023-09-19T04:25:53;16.40;99.90
78289;DHT22;67539;48.752;12.922;2023-09-19T04:28:21;16.30;99.90
78289;DHT22;67539;48.752;12.922;2023-09-19T04:30:50;16.30;99.90
78289;DHT22;67539;48.752;12.922;2023-09-19T04:33:18;16.30;99.90
78289;DHT22;67539;48.752;12.922;2023-09-19T04:35:49;16.30;99.90
78289;DHT22;67539;48.752;12.922;2023-09-19T04:38:17;16.40;99.90
78289;DHT22;67539;48.752;12.922;2023-09-19T04:40:47;16.40;99.90
78289;DHT22;67539;48.752;12.922;2023-09-19T04:43:15;16.40;99.90
78289;DHT22;67539;48.752;12.922;2023-09-19T04:45:44;16.40;99.90
78289;DHT22;67539;48.752;12.922;2023-09-19T04:48:13;16.40;99.90
78289;DHT22;67539;48.752;12.922;2023-09-19T04:50:43;16.40;99.90
78289;DHT22;67539;48.752;12.922;2023-09-19T04:53:11;16.40;99.90
78289;DHT22;67539;48.752;12.922;2023-09-19T04:55:39;16.40;99.90
78289;DHT22;67539;48.752;12.922;2023-09-19T04:58:09;16.40;99.90
78289;DHT22;67539;48.752;12.922;2023-09-19T05:00:37;16.40;99.90
78289;DHT22;67539;48.752;12.922;2023-09-19T05:03:06;16.40;99.90
78289;DHT22;67539;48.752;12.922;2023-09-19T05:05:35;16.30;99.90
78289;DHT22;67539;48.752;12.922;2023-09-19T05:08:05;16.30;99.90
78289;DHT22;67539;48.752;12.922;2023-09-19T05:10:35;16.30;99.90
78289;DHT22;67539;48.752;12.922;2023-09-19T05:13:04;16.30;99.90
78289;DHT22;67539;48.752;12.922;2023-09-19T05:15:35;16.30;99.90
78289;DHT22;67539;48.752;12.922;2023-09-19T05:18:04;16.30;99.90
78289;DHT22;67539;48.752;12.922;2023-09-19T05:20:33;16.30;99.90
78289;DHT22;67539;48.752;12.922;2023-09-19T05:23:05;16.30;99.90
78289;DHT22;67539;48.752;12.922;2023-09-19T05:25:36;16.30;99.90
78289;DHT22;67539;48.752;12.922;2023-09-19T05:28:06;16.40;99.90
78289;DHT22;67539;48.752;12.922;2023-09-19T05:30:36;16.40;99.90
78289;DHT22;67539;48.752;12.922;2023-09-19T05:33:05;16.40;99.90
78289;DHT22;67539;48.752;12.922;2023-09-19T05:35:34;16.40;99.90
78289;DHT22;67539;48.752;12.922;2023-09-19T05:38:03;16.40;99.90
78289;DHT22;67539;48.752;12.922;2023-09-19T05:40:32;16.40;99.90
78289;DHT22;67539;48.752;12.922;2023-09-19T05:43:01;16.40;99.90
78289;DHT22;67539;48.752;12.922;2023-09-19T05:45:31;16.40;99.90
78289;DHT22;67539;48.752;12.922;2023-09-19T05:48:07;16.40;99.90
78289;DHT22;67539;48.752;12.922;2023-09-19T05:50:37;16.40;99.90
78289;DHT22;67539;48.752;12.922;2023-09-19T05:53:05;16.40;99.90
78289;DHT22;67539;48.752;12.922;2023-09-19T05:55:34;16.50;99.90
78289;DHT22;67539;48.752;12.922;2023-09-19T05:58:02;16.50;99.90
78289;DHT22;67539;48.752;12.922;2023-09-19T06:00:31;16.50;99.90
78289;DHT22;67539;48.752;12.922;2023-09-19T06:03:03;16.60;99.90
78289;DHT22;67539;48.752;12.922;2023-09-19T06:05:31;16.60;99.90
78289;DHT22;67539;48.752;12.922;2023-09-19T06:07:59;16.60;99.90
78289;DHT22;67539;48.752;12.922;2023-09-19T06:10:28;16.60;99.90
78289;DHT22;67539;48.752;12.922;2023-09-19T06:12:58;16.60;99.90
78289;DHT22;67539;48.752;12.922;2023-09-19T06:15:26;16.50;99.90
78289;DHT22;67539;48.752;12.922;2023-09-19T06:17:55;16.50;99.90
78289;DHT22;67539;48.752;12.922;2023-09-19T06:20:25;16.50;99.90
78289;DHT22;67539;48.752;12.922;2023-09-19T06:22:54;16.50;99.90
78289;DHT22;67539;48.752;12.922;2023-09-19T06:25:22;16.50;99.90
78289;DHT22;67539;48.752;12.922;2023-09-19T06:27:52;16.50;99.90
78289;DHT22;67539;48.752;12.922;2023-09-19T06:30:21;16.60;99.90
78289;DHT22;67539;48.752;12.922;2023-09-19T06:32:55;16.50;99.90
78289;DHT22;67539;48.752;12.922;2023-09-19T06:35:25;16.50;99.90
78289;DHT22;67539;48.752;12.922;2023-09-19T06:37:54;16.50;99.90
78289;DHT22;67539;48.752;12.922;2023-09-19T06:40:27;16.50;99.90
78289;DHT22;67539;48.752;12.922;2023-09-19T06:42:55;16.60;99.90
78289;DHT22;67539;48.752;12.922;2023-09-19T06:45:23;16.60;99.90
78289;DHT22;67539;48.752;12.922;2023-09-19T06:47:54;16.60;99.90
78289;DHT22;67539;48.752;12.922;2023-09-19T06:50:27;16.60;99.90
78289;DHT22;67539;48.752;12.922;2023-09-19T06:52:57;16.70;99.90
78289;DHT22;67539;48.752;12.922;2023-09-19T06:55:27;16.80;99.90
78289;DHT22;67539;48.752;12.922;2023-09-19T06:57:58;16.80;99.90
78289;DHT22;67539;48.752;12.922;2023-09-19T07:00:27;16.80;99.90
78289;DHT22;67539;48.752;12.922;2023-09-19T07:02:58;16.90;99.90
78289;DHT22;67539;48.752;12.922;2023-09-19T07:05:30;17.10;99.90
78289;DHT22;67539;48.752;12.922;2023-09-19T07:07:59;17.20;99.90
78289;DHT22;67539;48.752;12.922;2023-09-19T07:10:28;17.30;99.90
78289;DHT22;67539;48.752;12.922;2023-09-19T07:12:57;17.40;99.90
78289;DHT22;67539;48.752;12.922;2023-09-19T07:15:26;17.50;99.90
78289;DHT22;67539;48.752;12.922;2023-09-19T07:17:55;17.50;99.90
78289;DHT22;67539;48.752;12.922;2023-09-19T07:20:24;17.60;99.90
78289;DHT22;67539;48.752;12.922;2023-09-19T07:22:55;17.60;99.90
78289;DHT22;67539;48.752;12.922;2023-09-19T07:25:26;17.60;99.90
78289;DHT22;67539;48.752;12.922;2023-09-19T07:27:55;17.60;99.90
78289;DHT22;67539;48.752;12.922;2023-09-19T07:30:23;17.60;99.90
78289;DHT22;67539;48.752;12.922;2023-09-19T07:32:52;17.60;99.90
78289;DHT22;67539;48.752;12.922;2023-09-19T07:35:21;17.60;99.90
78289;DHT22;67539;48.752;12.922;2023-09-19T07:37:50;17.80;99.90
78289;DHT22;67539;48.752;12.922;2023-09-19T07:40:20;17.80;99.90
78289;DHT22;67539;48.752;12.922;2023-09-19T07:42:48;17.80;99.90
78289;DHT22;67539;48.752;12.922;2023-09-19T07:45:17;17.90;99.90
78289;DHT22;67539;48.752;12.922;2023-09-19T07:47:46;17.90;99.90
78289;DHT22;67539;48.752;12.922;2023-09-19T07:50:15;18.00;99.90
78289;DHT22;67539;48.752;12.922;2023-09-19T07:52:45;18.00;99.90
78289;DHT22;67539;48.752;12.922;2023-09-19T07:55:14;18.10;99.90
78289;DHT22;67539;48.752;12.922;2023-09-19T07:57:45;18.30;99.90
78289;DHT22;67539;48.752;12.922;2023-09-19T08:00:14;18.30;99.90
78289;DHT22;67539;48.752;12.922;2023-09-19T08:02:43;18.50;99.90
78289;DHT22;67539;48.752;12.922;2023-09-19T08:05:13;18.40;99.90
78289;DHT22;67539;48.752;12.922;2023-09-19T08:07:44;18.50;99.90
78289;DHT22;67539;48.752;12.922;2023-09-19T08:10:16;18.60;99.90
78289;DHT22;67539;48.752;12.922;2023-09-19T08:12:48;18.60;99.90
78289;DHT22;67539;48.752;12.922;2023-09-19T08:15:23;18.50;99.90
78289;DHT22;67539;48.752;12.922;2023-09-19T08:17:51;18.50;99.90
78289;DHT22;67539;48.752;12.922;2023-09-19T08:20:20;18.50;99.90
78289;DHT22;67539;48.752;12.922;2023-09-19T08:22:50;18.70;99.90
78289;DHT22;67539;48.752;12.922;2023-09-19T08:25:20;18.80;99.90
78289;DHT22;67539;48.752;12.922;2023-09-19T08:27:49;18.90;99.90
78289;DHT22;67539;48.752;12.922;2023-09-19T08:30:19;19.00;99.90
78289;DHT22;67539;48.752;12.922;2023-09-19T08:32:51;19.00;99.90
78289;DHT22;67539;48.752;12.922;2023-09-19T08:35:25;19.10;99.90
78289;DHT22;67539;48.752;12.922;2023-09-19T08:37:53;19.10;99.90
78289;DHT22;67539;48.752;12.922;2023-09-19T08:40:22;19.20;99.90
78289;DHT22;67539;48.752;12.922;2023-09-19T08:42:55;19.30;99.90
78289;DHT22;67539;48.752;12.922;2023-09-19T08:45:24;19.30;99.90
78289;DHT22;67539;48.752;12.922;2023-09-19T08:48:00;19.50;99.90
78289;DHT22;67539;48.752;12.922;2023-09-19T08:50:30;19.50;99.90
78289;DHT22;67539;48.752;12.922;2023-09-19T08:53:01;19.50;99.90
78289;DHT22;67539;48.752;12.922;2023-09-19T08:55:29;19.50;99.90
78289;DHT22;67539;48.752;12.922;2023-09-19T08:58:03;19.60;99.90
78289;DHT22;67539;48.752;12.922;2023-09-19T09:00:35;19.60;99.90
78289;DHT22;67539;48.752;12.922;2023-09-19T09:03:05;19.50;99.90
78289;DHT22;67539;48.752;12.922;2023-09-19T09:05:37;19.50;99.90
78289;DHT22;67539;48.752;12.922;2023-09-19T09:08:07;19.50;99.90
78289;DHT22;67539;48.752;12.922;2023-09-19T09:10:37;19.40;99.90
78289;DHT22;67539;48.752;12.922;2023-09-19T09:13:09;19.40;99.90
78289;DHT22;67539;48.752;12.922;2023-09-19T09:15:41;19.40;99.90
78289;DHT22;67539;48.752;12.922;2023-09-19T09:18:11;19.30;99.90
78289;DHT22;67539;48.752;12.922;2023-09-19T09:20:40;19.30;99.90
78289;DHT22;67539;48.752;12.922;2023-09-19T09:23:08;19.30;99.90
78289;DHT22;67539;48.752;12.922;2023-09-19T09:25:53;19.50;99.90
78289;DHT22;67539;48.752;12.922;2023-09-19T09:28:26;19.70;99.90
78289;DHT22;67539;48.752;12.922;2023-09-19T09:30:55;19.80;99.90
78289;DHT22;67539;48.752;12.922;2023-09-19T09:33:25;20.00;99.90
78289;DHT22;67539;48.752;12.922;2023-09-19T09:35:55;20.00;99.90
78289;DHT22;67539;48.752;12.922;2023-09-19T09:38:26;20.00;99.90
78289;DHT22;67539;48.752;12.922;2023-09-19T09:40:56;19.90;99.90
78289;DHT22;67539;48.752;12.922;2023-09-19T09:43:35;19.80;99.90
78289;DHT22;67539;48.752;12.922;2023-09-19T09:46:11;19.70;99.90
78289;DHT22;67539;48.752;12.922;2023-09-19T09:49:11;19.70;99.90
78289;DHT22;67539;48.752;12.922;2023-09-19T09:51:48;19.70;99.90
78289;DHT22;67539;48.752;12.922;2023-09-19T09:54:25;19.70;99.90
78289;DHT22;67539;48.752;12.922;2023-09-19T09:56:55;19.80;99.90
78289;DHT22;67539;48.752;12.922;2023-09-19T09:59:47;19.80;99.90
78289;DHT22;67539;48.752;12.922;2023-09-19T10:02:18;19.90;99.90
78289;DHT22;67539;48.752;12.922;2023-09-19T10:04:52;19.90;99.90
78289;DHT22;67539;48.752;12.922;2023-09-19T10:07:27;19.90;99.90
78289;DHT22;67539;48.752;12.922;2023-09-19T10:10:00;20.00;99.90
78289;DHT22;67539;48.752;12.922;2023-09-19T10:12:40;20.10;99.90
78289;DHT22;67539;48.752;12.922;2023-09-19T10:15:12;20.10;99.90
78289;DHT22;67539;48.752;12.922;2023-09-19T10:17:43;20.10;99.90
78289;DHT22;67539;48.752;12.922;2023-09-19T10:20:14;20.10;99.90
78289;DHT22;67539;48.752;12.922;2023-09-19T10:23:06;20.20;99.90
78289;DHT22;67539;48.752;12.922;2023-09-19T10:25:40;20.30;99.90
78289;DHT22;67539;48.752;12.922;2023-09-19T10:28:10;20.40;99.90
78289;DHT22;67539;48.752;12.922;2023-09-19T10:30:43;20.40;99.90
78289;DHT22;67539;48.752;12.922;2023-09-19T10:33:15;20.40;99.90
78289;DHT22;67539;48.752;12.922;2023-09-19T10:35:45;20.60;99.90
78289;DHT22;67539;48.752;12.922;2023-09-19T10:38:14;20.60;99.90
78289;DHT22;67539;48.752;12.922;2023-09-19T10:40:49;20.70;99.90
78289;DHT22;67539;48.752;12.922;2023-09-19T10:43:19;20.80;99.90
78289;DHT22;67539;48.752;12.922;2023-09-19T10:45:50;20.90;99.90
78289;DHT22;67539;48.752;12.922;2023-09-19T10:48:20;20.90;99.90
78289;DHT22;67539;48.752;12.922;2023-09-19T10:50:58;20.90;99.90
78289;DHT22;67539;48.752;12.922;2023-09-19T10:53:41;20.80;99.90
78289;DHT22;67539;48.752;12.922;2023-09-19T10:56:11;20.70;99.90
78289;DHT22;67539;48.752;12.922;2023-09-19T10:58:44;20.50;99.90
78289;DHT22;67539;48.752;12.922;2023-09-19T11:01:14;20.20;99.90
78289;DHT22;67539;48.752;12.922;2023-09-19T11:03:44;19.70;99.90
78289;DHT22;67539;48.752;12.922;2023-09-19T11:06:17;17.60;99.90
78289;DHT22;67539;48.752;12.922;2023-09-19T11:08:57;16.00;99.90
78289;DHT22;67539;48.752;12.922;2023-09-19T11:11:47;15.30;99.90
78289;DHT22;67539;48.752;12.922;2023-09-19T11:14:44;15.00;99.90
78289;DHT22;67539;48.752;12.922;2023-09-19T11:17:44;14.70;99.90
78289;DHT22;67539;48.752;12.922;2023-09-19T11:20:28;14.50;99.90
78289;DHT22;67539;48.752;12.922;2023-09-19T11:23:19;14.40;99.90
78289;DHT22;67539;48.752;12.922;2023-09-19T11:25:50;14.40;99.90
78289;DHT22;67539;48.752;12.922;2023-09-19T11:28:33;14.50;99.90
78289;DHT22;67539;48.752;12.922;2023-09-19T11:34:47;14.70;99.90
78289;DHT22;67539;48.752;12.922;2023-09-19T11:40:29;15.00;99.90
78289;DHT22;67539;48.752;12.922;2023-09-19T11:42:58;15.20;99.90
78289;DHT22;67539;48.752;12.922;2023-09-19T11:48:32;15.60;99.90
78289;DHT22;67539;48.752;12.922;2023-09-19T11:51:13;15.80;99.90
78289;DHT22;67539;48.752;12.922;2023-09-19T11:53:46;16.00;99.90
78289;DHT22;67539;48.752;12.922;2023-09-19T11:56:19;16.10;99.90
78289;DHT22;67539;48.752;12.922;2023-09-19T11:58:49;16.10;99.90
78289;DHT22;67539;48.752;12.922;2023-09-19T12:01:23;16.30;99.90
78289;DHT22;67539;48.752;12.922;2023-09-19T12:03:54;16.30;99.90
78289;DHT22;67539;48.752;12.922;2023-09-19T12:06:26;16.50;99.90
78289;DHT22;67539;48.752;12.922;2023-09-19T12:08:56;16.60;99.90
78289;DHT22;67539;48.752;12.922;2023-09-19T12:11:29;16.70;99.90
78289;DHT22;67539;48.752;12.922;2023-09-19T12:14:01;16.90;99.90
78289;DHT22;67539;48.752;12.922;2023-09-19T12:16:31;17.00;99.90
78289;DHT22;67539;48.752;12.922;2023-09-19T12:19:19;17.10;99.90
78289;DHT22;67539;48.752;12.922;2023-09-19T12:21:59;17.30;99.90
78289;DHT22;67539;48.752;12.922;2023-09-19T12:24:31;17.40;99.90
78289;DHT22;67539;48.752;12.922;2023-09-19T12:27:01;17.50;99.90
78289;DHT22;67539;48.752;12.922;2023-09-19T12:29:32;17.60;99.90
78289;DHT22;67539;48.752;12.922;2023-09-19T12:32:09;17.60;99.90
78289;DHT22;67539;48.752;12.922;2023-09-19T12:34:37;17.70;99.90
78289;DHT22;67539;48.752;12.922;2023-09-19T12:37:12;17.80;99.90
78289;DHT22;67539;48.752;12.922;2023-09-19T12:39:43;17.90;99.90
78289;DHT22;67539;48.752;12.922;2023-09-19T12:42:16;18.00;99.90
78289;DHT22;67539;48.752;12.922;2023-09-19T12:44:47;18.20;99.90
78289;DHT22;67539;48.752;12.922;2023-09-19T12:47:16;18.20;99.90
78289;DHT22;67539;48.752;12.922;2023-09-19T12:50:04;18.20;99.90
78289;DHT22;67539;48.752;12.922;2023-09-19T12:52:36;18.30;99.90
78289;DHT22;67539;48.752;12.922;2023-09-19T12:55:05;18.30;99.90
78289;DHT22;67539;48.752;12.922;2023-09-19T12:57:34;18.40;99.90
78289;DHT22;67539;48.752;12.922;2023-09-19T13:00:02;18.50;99.90
78289;DHT22;67539;48.752;12.922;2023-09-19T13:02:32;18.50;99.90
78289;DHT22;67539;48.752;12.922;2023-09-19T13:05:00;18.60;99.90
78289;DHT22;67539;48.752;12.922;2023-09-19T13:07:43;18.60;99.90
78289;DHT22;67539;48.752;12.922;2023-09-19T13:10:13;18.70;99.90
78289;DHT22;67539;48.752;12.922;2023-09-19T13:12:43;18.80;99.90
78289;DHT22;67539;48.752;12.922;2023-09-19T13:15:14;18.80;99.90
78289;DHT22;67539;48.752;12.922;2023-09-19T13:17:47;18.90;99.90
78289;DHT22;67539;48.752;12.922;2023-09-19T13:20:23;19.00;99.90
78289;DHT22;67539;48.752;12.922;2023-09-19T13:22:56;19.00;99.90
78289;DHT22;67539;48.752;12.922;2023-09-19T13:25:27;19.20;99.90
78289;DHT22;67539;48.752;12.922;2023-09-19T13:27:57;19.20;99.90
78289;DHT22;67539;48.752;12.922;2023-09-19T13:30:27;19.30;99.90
78289;DHT22;67539;48.752;12.922;2023-09-19T13:33:06;19.50;99.90
78289;DHT22;67539;48.752;12.922;2023-09-19T13:35:34;20.00;99.90
78289;DHT22;67539;48.752;12.922;2023-09-19T13:38:05;20.20;99.90
78289;DHT22;67539;48.752;12.922;2023-09-19T13:40:33;20.40;99.90
78289;DHT22;67539;48.752;12.922;2023-09-19T13:43:02;20.40;99.90
78289;DHT22;67539;48.752;12.922;2023-09-19T13:45:30;20.30;99.90
78289;DHT22;67539;48.752;12.922;2023-09-19T13:47:58;20.20;99.90
78289;DHT22;67539;48.752;12.922;2023-09-19T13:50:28;20.30;99.90
78289;DHT22;67539;48.752;12.922;2023-09-19T13:52:56;20.40;99.90
78289;DHT22;67539;48.752;12.922;2023-09-19T13:55:28;20.40;99.90
78289;DHT22;67539;48.752;12.922;2023-09-19T13:57:57;20.60;99.90
78289;DHT22;67539;48.752;12.922;2023-09-19T14:00:25;20.70;99.90
78289;DHT22;67539;48.752;12.922;2023-09-19T14:02:54;20.70;99.90
78289;DHT22;67539;48.752;12.922;2023-09-19T14:05:23;21.00;99.90
78289;DHT22;67539;48.752;12.922;2023-09-19T14:07:54;21.30;99.90
78289;DHT22;67539;48.752;12.922;2023-09-19T14:10:23;21.60;99.90
78289;DHT22;67539;48.752;12.922;2023-09-19T14:12:53;21.50;99.90
78289;DHT22;67539;48.752;12.922;2023-09-19T14:15:21;21.40;99.90
78289;DHT22;67539;48.752;12.922;2023-09-19T14:17:57;21.60;99.90
78289;DHT22;67539;48.752;12.922;2023-09-19T14:20:27;22.00;99.90
78289;DHT22;67539;48.752;12.922;2023-09-19T14:22:57;22.30;99.90
78289;DHT22;67539;48.752;12.922;2023-09-19T14:25:27;22.60;99.90
78289;DHT22;67539;48.752;12.922;2023-09-19T14:27:57;23.00;99.90
78289;DHT22;67539;48.752;12.922;2023-09-19T14:30:25;23.50;99.30
78289;DHT22;67539;48.752;12.922;2023-09-19T14:32:54;23.20;98.70
78289;DHT22;67539;48.752;12.922;2023-09-19T14:35:25;23.50;99.30
78289;DHT22;67539;48.752;12.922;2023-09-19T14:37:53;23.30;98.40
78289;DHT22;67539;48.752;12.922;2023-09-19T14:40:22;23.20;98.80
78289;DHT22;67539;48.752;12.922;2023-09-19T14:42:50;23.30;97.90
78289;DHT22;67539;48.752;12.922;2023-09-19T14:45:20;23.20;99.30
78289;DHT22;67539;48.752;12.922;2023-09-19T14:47:50;23.30;98.10
78289;DHT22;67539;48.752;12.922;2023-09-19T14:50:19;23.40;97.50
78289;DHT22;67539;48.752;12.922;2023-09-19T14:52:49;23.40;97.70
78289;DHT22;67539;48.752;12.922;2023-09-19T14:55:18;23.40;97.50
78289;DHT22;67539;48.752;12.922;2023-09-19T14:57:49;23.10;97.40
78289;DHT22;67539;48.752;12.922;2023-09-19T15:00:21;23.00;97.60
78289;DHT22;67539;48.752;12.922;2023-09-19T15:02:50;23.20;98.60
78289;DHT22;67539;48.752;12.922;2023-09-19T15:05:19;23.40;95.80
78289;DHT22;67539;48.752;12.922;2023-09-19T15:07:48;23.40;96.20
78289;DHT22;67539;48.752;12.922;2023-09-19T15:10:16;23.70;97.00
78289;DHT22;67539;48.752;12.922;2023-09-19T15:12:45;24.10;95.80
78289;DHT22;67539;48.752;12.922;2023-09-19T15:15:13;23.80;95.40
78289;DHT22;67539;48.752;12.922;2023-09-19T15:17:43;23.30;95.70
78289;DHT22;67539;48.752;12.922;2023-09-19T15:20:11;23.00;95.70
78289;DHT22;67539;48.752;12.922;2023-09-19T15:22:41;22.50;96.40
78289;DHT22;67539;48.752;12.922;2023-09-19T15:25:09;22.40;96.50
78289;DHT22;67539;48.752;12.922;2023-09-19T15:27:37;22.20;96.90
78289;DHT22;67539;48.752;12.922;2023-09-19T15:30:07;22.10;97.90
78289;DHT22;67539;48.752;12.922;2023-09-19T15:32:35;22.00;97.00
78289;DHT22;67539;48.752;12.922;2023-09-19T15:35:05;22.10;97.20
78289;DHT22;67539;48.752;12.922;2023-09-19T15:37:34;22.40;98.30
78289;DHT22;67539;48.752;12.922;2023-09-19T15:40:03;22.80;97.20
78289;DHT22;67539;48.752;12.922;2023-09-19T15:42:35;22.90;96.00
78289;DHT22;67539;48.752;12.922;2023-09-19T15:45:04;22.90;96.80
78289;DHT22;67539;48.752;12.922;2023-09-19T15:47:32;22.70;97.70
78289;DHT22;67539;48.752;12.922;2023-09-19T15:50:01;22.80;97.40